sensor_id;sensor_type;location;lat;lon;timestamp;P1;durP1;ratioP1;P2;durP2;ratioP2
51228;SDS011;37304;52.216;6.874;2023-03-24T00:01:04;5.45;;;1.30;;
51228;SDS011;37304;52.216;6.874;2023-03-24T00:06:05;7.78;;;1.40;;
51228;SDS011;37304;52.216;6.874;2023-03-24T00:11:07;2.05;;;1.05;;
51228;SDS011;37304;52.216;6.874;2023-03-24T00:16:11;2.42;;;1.23;;
51228;SDS011;37304;52.216;6.874;2023-03-24T00:21:12;4.53;;;1.20;;
51228;SDS011;37304;52.216;6.874;2023-03-24T00:26:15;5.90;;;1.23;;
51228;SDS011;37304;52.216;6.874;2023-03-24T00:31:16;3.50;;;1.35;;
51228;SDS011;37304;52.216;6.874;2023-03-24T00:36:18;3.65;;;1.35;;
51228;SDS011;37304;52.216;6.874;2023-03-24T00:41:20;2.75;;;1.30;;
51228;SDS011;37304;52.216;6.874;2023-03-24T00:46:21;4.70;;;1.20;;
51228;SDS011;37304;52.216;6.874;2023-03-24T00:56:30;2.35;;;1.15;;
51228;SDS011;37304;52.216;6.874;2023-03-24T01:01:32;2.50;;;1.58;;
51228;SDS011;37304;52.216;6.874;2023-03-24T01:06:35;5.43;;;1.52;;
51228;SDS011;37304;52.216;6.874;2023-03-24T01:11:37;1.60;;;1.48;;
51228;SDS011;37304;52.216;6.874;2023-03-24T01:16:40;2.17;;;1.20;;
51228;SDS011;37304;52.216;6.874;2023-03-24T01:21:41;4.22;;;1.63;;
51228;SDS011;37304;52.216;6.874;2023-03-24T01:26:42;3.60;;;1.23;;
51228;SDS011;37304;52.216;6.874;2023-03-24T01:31:43;2.22;;;1.38;;
51228;SDS011;37304;52.216;6.874;2023-03-24T01:36:43;2.77;;;1.30;;
51228;SDS011;37304;52.216;6.874;2023-03-24T01:41:43;1.53;;;0.90;;
51228;SDS011;37304;52.216;6.874;2023-03-24T01:46:44;2.37;;;1.20;;
51228;SDS011;37304;52.216;6.874;2023-03-24T01:51:46;2.70;;;1.23;;
51228;SDS011;37304;52.216;6.874;2023-03-24T01:56:56;1.20;;;0.90;;
51228;SDS011;37304;52.216;6.874;2023-03-24T02:02:04;2.78;;;1.17;;
51228;SDS011;37304;52.216;6.874;2023-03-24T02:07:24;2.00;;;1.00;;
51228;SDS011;37304;52.216;6.874;2023-03-24T02:12:33;2.42;;;1.33;;
51228;SDS011;37304;52.216;6.874;2023-03-24T02:17:39;2.17;;;1.10;;
51228;SDS011;37304;52.216;6.874;2023-03-24T02:28:09;2.03;;;1.38;;
51228;SDS011;37304;52.216;6.874;2023-03-24T02:43:48;2.10;;;1.50;;
51228;SDS011;37304;52.216;6.874;2023-03-24T02:48:57;3.13;;;1.00;;
51228;SDS011;37304;52.216;6.874;2023-03-24T02:59:16;1.80;;;1.35;;
51228;SDS011;37304;52.216;6.874;2023-03-24T03:04:25;2.00;;;1.20;;
51228;SDS011;37304;52.216;6.874;2023-03-24T03:09:31;1.70;;;1.30;;
51228;SDS011;37304;52.216;6.874;2023-03-24T03:14:36;3.20;;;1.60;;
51228;SDS011;37304;52.216;6.874;2023-03-24T03:19:45;1.27;;;1.10;;
51228;SDS011;37304;52.216;6.874;2023-03-24T03:24:50;2.55;;;1.65;;
51228;SDS011;37304;52.216;6.874;2023-03-24T03:29:58;1.98;;;1.40;;
51228;SDS011;37304;52.216;6.874;2023-03-24T03:35:08;1.92;;;1.73;;
51228;SDS011;37304;52.216;6.874;2023-03-24T03:40:14;3.33;;;1.88;;
51228;SDS011;37304;52.216;6.874;2023-03-24T03:45:19;2.97;;;1.80;;
51228;SDS011;37304;52.216;6.874;2023-03-24T03:50:19;3.27;;;1.67;;
51228;SDS011;37304;52.216;6.874;2023-03-24T03:55:21;2.83;;;1.67;;
51228;SDS011;37304;52.216;6.874;2023-03-24T04:00:21;2.70;;;1.77;;
51228;SDS011;37304;52.216;6.874;2023-03-24T04:15:54;5.57;;;2.10;;
51228;SDS011;37304;52.216;6.874;2023-03-24T04:31:25;0.73;;;0.60;;
51228;SDS011;37304;52.216;6.874;2023-03-24T04:36:44;1.05;;;0.75;;
51228;SDS011;37304;52.216;6.874;2023-03-24T04:41:54;1.40;;;0.52;;
51228;SDS011;37304;52.216;6.874;2023-03-24T04:46:57;0.93;;;0.82;;
51228;SDS011;37304;52.216;6.874;2023-03-24T04:51:59;0.68;;;0.63;;
51228;SDS011;37304;52.216;6.874;2023-03-24T04:57:00;1.53;;;0.70;;
51228;SDS011;37304;52.216;6.874;2023-03-24T05:02:01;2.88;;;0.70;;
51228;SDS011;37304;52.216;6.874;2023-03-24T05:12:02;0.77;;;0.55;;
51228;SDS011;37304;52.216;6.874;2023-03-24T05:22:03;2.75;;;0.90;;
51228;SDS011;37304;52.216;6.874;2023-03-24T05:32:04;2.97;;;0.70;;
51228;SDS011;37304;52.216;6.874;2023-03-24T05:42:06;3.80;;;0.68;;
51228;SDS011;37304;52.216;6.874;2023-03-24T05:52:07;5.93;;;0.90;;
51228;SDS011;37304;52.216;6.874;2023-03-24T05:57:12;4.03;;;0.82;;
51228;SDS011;37304;52.216;6.874;2023-03-24T06:02:15;2.28;;;0.70;;
51228;SDS011;37304;52.216;6.874;2023-03-24T06:07:15;4.37;;;1.07;;
51228;SDS011;37304;52.216;6.874;2023-03-24T06:12:16;4.80;;;1.30;;
51228;SDS011;37304;52.216;6.874;2023-03-24T06:22:20;6.82;;;1.25;;
51228;SDS011;37304;52.216;6.874;2023-03-24T06:27:20;4.97;;;1.30;;
51228;SDS011;37304;52.216;6.874;2023-03-24T06:32:24;5.20;;;1.27;;
51228;SDS011;37304;52.216;6.874;2023-03-24T06:42:26;17.10;;;1.55;;
51228;SDS011;37304;52.216;6.874;2023-03-24T06:52:26;4.05;;;1.38;;
51228;SDS011;37304;52.216;6.874;2023-03-24T07:02:27;4.23;;;1.03;;
51228;SDS011;37304;52.216;6.874;2023-03-24T07:07:33;7.82;;;1.85;;
51228;SDS011;37304;52.216;6.874;2023-03-24T07:12:34;4.53;;;1.65;;
51228;SDS011;37304;52.216;6.874;2023-03-24T07:17:35;5.97;;;2.08;;
51228;SDS011;37304;52.216;6.874;2023-03-24T07:22:35;8.73;;;1.70;;
51228;SDS011;37304;52.216;6.874;2023-03-24T07:32:37;6.93;;;1.80;;
51228;SDS011;37304;52.216;6.874;2023-03-24T07:37:41;7.43;;;1.60;;
51228;SDS011;37304;52.216;6.874;2023-03-24T07:47:43;8.07;;;1.70;;
51228;SDS011;37304;52.216;6.874;2023-03-24T07:52:48;9.85;;;1.63;;
51228;SDS011;37304;52.216;6.874;2023-03-24T07:57:52;7.03;;;1.70;;
51228;SDS011;37304;52.216;6.874;2023-03-24T08:03:05;7.70;;;2.08;;
51228;SDS011;37304;52.216;6.874;2023-03-24T08:08:10;6.15;;;1.95;;
51228;SDS011;37304;52.216;6.874;2023-03-24T08:13:11;5.72;;;1.70;;
51228;SDS011;37304;52.216;6.874;2023-03-24T08:23:12;4.03;;;1.90;;
51228;SDS011;37304;52.216;6.874;2023-03-24T08:28:13;5.43;;;2.40;;
51228;SDS011;37304;52.216;6.874;2023-03-24T08:33:13;4.77;;;2.00;;
51228;SDS011;37304;52.216;6.874;2023-03-24T08:38:17;9.70;;;2.53;;
51228;SDS011;37304;52.216;6.874;2023-03-24T08:43:22;8.57;;;2.35;;
51228;SDS011;37304;52.216;6.874;2023-03-24T08:48:27;6.43;;;2.22;;
51228;SDS011;37304;52.216;6.874;2023-03-24T08:53:28;8.65;;;1.95;;
51228;SDS011;37304;52.216;6.874;2023-03-24T08:58:29;5.67;;;1.63;;
51228;SDS011;37304;52.216;6.874;2023-03-24T09:03:29;4.83;;;1.87;;
51228;SDS011;37304;52.216;6.874;2023-03-24T09:08:31;6.88;;;1.80;;
51228;SDS011;37304;52.216;6.874;2023-03-24T09:13:31;4.63;;;1.60;;
51228;SDS011;37304;52.216;6.874;2023-03-24T09:18:32;5.03;;;1.75;;
51228;SDS011;37304;52.216;6.874;2023-03-24T09:23:33;4.63;;;1.30;;
51228;SDS011;37304;52.216;6.874;2023-03-24T09:28:33;2.97;;;1.42;;
51228;SDS011;37304;52.216;6.874;2023-03-24T09:33:34;5.70;;;1.43;;
51228;SDS011;37304;52.216;6.874;2023-03-24T09:38:34;8.30;;;1.77;;
51228;SDS011;37304;52.216;6.874;2023-03-24T09:43:36;8.07;;;2.08;;
51228;SDS011;37304;52.216;6.874;2023-03-24T09:59:14;2.70;;;1.05;;
51228;SDS011;37304;52.216;6.874;2023-03-24T10:04:18;5.43;;;1.60;;
51228;SDS011;37304;52.216;6.874;2023-03-24T10:09:25;6.30;;;1.52;;
51228;SDS011;37304;52.216;6.874;2023-03-24T10:14:40;4.07;;;1.20;;
51228;SDS011;37304;52.216;6.874;2023-03-24T10:24:58;8.35;;;1.58;;
51228;SDS011;37304;52.216;6.874;2023-03-24T10:30:13;3.03;;;1.27;;
51228;SDS011;37304;52.216;6.874;2023-03-24T10:35:22;6.18;;;1.10;;
51228;SDS011;37304;52.216;6.874;2023-03-24T10:40:31;4.88;;;1.45;;
51228;SDS011;37304;52.216;6.874;2023-03-24T10:45:32;2.67;;;1.10;;
51228;SDS011;37304;52.216;6.874;2023-03-24T10:50:46;5.88;;;1.30;;
51228;SDS011;37304;52.216;6.874;2023-03-24T10:55:48;4.22;;;1.10;;
51228;SDS011;37304;52.216;6.874;2023-03-24T11:00:49;3.10;;;0.98;;
51228;SDS011;37304;52.216;6.874;2023-03-24T11:05:50;5.35;;;1.10;;
51228;SDS011;37304;52.216;6.874;2023-03-24T11:10:58;4.20;;;1.10;;
51228;SDS011;37304;52.216;6.874;2023-03-24T11:16:12;3.90;;;0.85;;
51228;SDS011;37304;52.216;6.874;2023-03-24T11:21:14;1.35;;;0.65;;
51228;SDS011;37304;52.216;6.874;2023-03-24T11:26:21;2.97;;;0.88;;
51228;SDS011;37304;52.216;6.874;2023-03-24T11:31:31;5.07;;;1.02;;
51228;SDS011;37304;52.216;6.874;2023-03-24T11:36:40;3.08;;;0.88;;
51228;SDS011;37304;52.216;6.874;2023-03-24T11:52:26;3.95;;;0.75;;
51228;SDS011;37304;52.216;6.874;2023-03-24T11:57:43;4.18;;;1.08;;
51228;SDS011;37304;52.216;6.874;2023-03-24T12:08:41;5.20;;;0.82;;
51228;SDS011;37304;52.216;6.874;2023-03-24T12:13:56;3.70;;;0.80;;
51228;SDS011;37304;52.216;6.874;2023-03-24T12:24:55;3.33;;;1.10;;
51228;SDS011;37304;52.216;6.874;2023-03-24T12:30:09;1.70;;;0.93;;
51228;SDS011;37304;52.216;6.874;2023-03-24T12:35:25;1.70;;;0.50;;
51228;SDS011;37304;52.216;6.874;2023-03-24T12:45:55;3.03;;;1.40;;
51228;SDS011;37304;52.216;6.874;2023-03-24T12:56:17;2.83;;;1.10;;
51228;SDS011;37304;52.216;6.874;2023-03-24T13:01:32;1.67;;;0.70;;
51228;SDS011;37304;52.216;6.874;2023-03-24T13:11:56;3.70;;;0.82;;
51228;SDS011;37304;52.216;6.874;2023-03-24T13:22:04;3.22;;;0.93;;
51228;SDS011;37304;52.216;6.874;2023-03-24T13:27:10;1.50;;;0.80;;
51228;SDS011;37304;52.216;6.874;2023-03-24T13:37:28;3.40;;;0.60;;
51228;SDS011;37304;52.216;6.874;2023-03-24T13:42:47;2.80;;;0.90;;
51228;SDS011;37304;52.216;6.874;2023-03-24T13:53:00;2.13;;;1.10;;
51228;SDS011;37304;52.216;6.874;2023-03-24T13:58:24;1.95;;;0.77;;
51228;SDS011;37304;52.216;6.874;2023-03-24T14:03:33;1.67;;;0.43;;
51228;SDS011;37304;52.216;6.874;2023-03-24T14:08:54;4.22;;;0.68;;
51228;SDS011;37304;52.216;6.874;2023-03-24T14:24:25;4.30;;;1.08;;
51228;SDS011;37304;52.216;6.874;2023-03-24T14:29:46;1.23;;;1.05;;
51228;SDS011;37304;52.216;6.874;2023-03-24T14:34:56;3.25;;;1.23;;
51228;SDS011;37304;52.216;6.874;2023-03-24T14:39:59;2.42;;;1.13;;
51228;SDS011;37304;52.216;6.874;2023-03-24T14:50:37;4.65;;;1.48;;
51228;SDS011;37304;52.216;6.874;2023-03-24T14:55:46;4.70;;;1.95;;
51228;SDS011;37304;52.216;6.874;2023-03-24T15:00:56;4.45;;;2.17;;
51228;SDS011;37304;52.216;6.874;2023-03-24T15:11:43;3.03;;;1.15;;
51228;SDS011;37304;52.216;6.874;2023-03-24T15:22:25;1.60;;;0.70;;
51228;SDS011;37304;52.216;6.874;2023-03-24T15:27:47;2.65;;;0.82;;
51228;SDS011;37304;52.216;6.874;2023-03-24T15:32:50;2.15;;;0.95;;
51228;SDS011;37304;52.216;6.874;2023-03-24T15:38:04;1.35;;;0.80;;
51228;SDS011;37304;52.216;6.874;2023-03-24T15:43:15;2.70;;;0.60;;
51228;SDS011;37304;52.216;6.874;2023-03-24T15:48:34;2.17;;;0.80;;
51228;SDS011;37304;52.216;6.874;2023-03-24T15:58:47;1.95;;;0.68;;
51228;SDS011;37304;52.216;6.874;2023-03-24T16:04:18;1.25;;;0.50;;
51228;SDS011;37304;52.216;6.874;2023-03-24T16:09:20;1.45;;;0.40;;
51228;SDS011;37304;52.216;6.874;2023-03-24T16:14:23;1.60;;;0.55;;
51228;SDS011;37304;52.216;6.874;2023-03-24T16:19:47;2.88;;;1.02;;
51228;SDS011;37304;52.216;6.874;2023-03-24T16:29:48;1.40;;;0.50;;
51228;SDS011;37304;52.216;6.874;2023-03-24T16:39:48;1.25;;;0.45;;
51228;SDS011;37304;52.216;6.874;2023-03-24T16:49:49;3.03;;;0.70;;
51228;SDS011;37304;52.216;6.874;2023-03-24T16:59:53;4.30;;;0.90;;
51228;SDS011;37304;52.216;6.874;2023-03-24T17:09:56;1.20;;;0.60;;
51228;SDS011;37304;52.216;6.874;2023-03-24T17:19:56;1.30;;;0.77;;
51228;SDS011;37304;52.216;6.874;2023-03-24T17:29:58;0.98;;;0.73;;
51228;SDS011;37304;52.216;6.874;2023-03-24T17:40:00;1.40;;;0.73;;
51228;SDS011;37304;52.216;6.874;2023-03-24T17:50:03;2.67;;;1.00;;
51228;SDS011;37304;52.216;6.874;2023-03-24T17:55:09;2.17;;;0.90;;
51228;SDS011;37304;52.216;6.874;2023-03-24T18:00:11;3.13;;;1.15;;
51228;SDS011;37304;52.216;6.874;2023-03-24T18:05:13;2.40;;;1.10;;
51228;SDS011;37304;52.216;6.874;2023-03-24T18:10:15;2.00;;;1.30;;
51228;SDS011;37304;52.216;6.874;2023-03-24T18:15:15;1.13;;;0.88;;
51228;SDS011;37304;52.216;6.874;2023-03-24T18:25:16;2.73;;;1.50;;
51228;SDS011;37304;52.216;6.874;2023-03-24T18:35:17;7.43;;;1.80;;
51228;SDS011;37304;52.216;6.874;2023-03-24T18:45:18;4.47;;;1.63;;
51228;SDS011;37304;52.216;6.874;2023-03-24T18:50:18;6.73;;;2.70;;
51228;SDS011;37304;52.216;6.874;2023-03-24T19:00:20;3.45;;;1.83;;
51228;SDS011;37304;52.216;6.874;2023-03-24T19:05:21;5.43;;;2.00;;
51228;SDS011;37304;52.216;6.874;2023-03-24T19:10:24;4.90;;;1.98;;
51228;SDS011;37304;52.216;6.874;2023-03-24T19:15:25;2.53;;;1.30;;
51228;SDS011;37304;52.216;6.874;2023-03-24T19:20:29;4.18;;;1.40;;
51228;SDS011;37304;52.216;6.874;2023-03-24T19:25:29;6.50;;;1.45;;
51228;SDS011;37304;52.216;6.874;2023-03-24T19:35:30;5.53;;;1.77;;
51228;SDS011;37304;52.216;6.874;2023-03-24T19:45:31;3.87;;;1.43;;
51228;SDS011;37304;52.216;6.874;2023-03-24T19:50:35;5.10;;;1.65;;
51228;SDS011;37304;52.216;6.874;2023-03-24T19:55:36;2.10;;;0.90;;
51228;SDS011;37304;52.216;6.874;2023-03-24T20:05:40;4.63;;;1.17;;
51228;SDS011;37304;52.216;6.874;2023-03-24T20:15:48;1.58;;;0.65;;
51228;SDS011;37304;52.216;6.874;2023-03-24T20:25:49;1.20;;;0.83;;
51228;SDS011;37304;52.216;6.874;2023-03-24T20:30:50;2.80;;;1.25;;
51228;SDS011;37304;52.216;6.874;2023-03-24T20:35:58;1.77;;;0.88;;
51228;SDS011;37304;52.216;6.874;2023-03-24T20:41:00;1.33;;;0.57;;
51228;SDS011;37304;52.216;6.874;2023-03-24T20:46:02;4.55;;;1.17;;
51228;SDS011;37304;52.216;6.874;2023-03-24T20:51:04;0.70;;;0.50;;
51228;SDS011;37304;52.216;6.874;2023-03-24T20:56:07;3.17;;;1.03;;
51228;SDS011;37304;52.216;6.874;2023-03-24T21:01:10;3.28;;;1.00;;
51228;SDS011;37304;52.216;6.874;2023-03-24T21:06:19;2.42;;;1.33;;
51228;SDS011;37304;52.216;6.874;2023-03-24T21:11:22;3.45;;;1.15;;
51228;SDS011;37304;52.216;6.874;2023-03-24T21:16:23;2.63;;;1.02;;
51228;SDS011;37304;52.216;6.874;2023-03-24T21:21:27;3.63;;;1.45;;
51228;SDS011;37304;52.216;6.874;2023-03-24T21:26:27;1.48;;;0.90;;
51228;SDS011;37304;52.216;6.874;2023-03-24T21:31:28;4.03;;;1.40;;
51228;SDS011;37304;52.216;6.874;2023-03-24T21:36:29;2.00;;;0.90;;
51228;SDS011;37304;52.216;6.874;2023-03-24T21:46:30;5.95;;;1.88;;
51228;SDS011;37304;52.216;6.874;2023-03-24T21:51:33;1.67;;;1.00;;
51228;SDS011;37304;52.216;6.874;2023-03-24T21:56:37;6.55;;;1.10;;
51228;SDS011;37304;52.216;6.874;2023-03-24T22:01:38;1.63;;;1.33;;
51228;SDS011;37304;52.216;6.874;2023-03-24T22:06:45;2.08;;;0.75;;
51228;SDS011;37304;52.216;6.874;2023-03-24T22:11:46;4.93;;;0.90;;
51228;SDS011;37304;52.216;6.874;2023-03-24T22:16:47;2.70;;;1.07;;
51228;SDS011;37304;52.216;6.874;2023-03-24T22:21:47;2.30;;;1.13;;
51228;SDS011;37304;52.216;6.874;2023-03-24T22:26:56;1.20;;;0.70;;
51228;SDS011;37304;52.216;6.874;2023-03-24T22:31:57;2.13;;;0.75;;
51228;SDS011;37304;52.216;6.874;2023-03-24T22:37:00;3.72;;;0.50;;
51228;SDS011;37304;52.216;6.874;2023-03-24T22:42:00;7.33;;;0.90;;
51228;SDS011;37304;52.216;6.874;2023-03-24T22:47:05;2.90;;;0.70;;
51228;SDS011;37304;52.216;6.874;2023-03-24T22:52:06;3.83;;;0.70;;
51228;SDS011;37304;52.216;6.874;2023-03-24T22:57:06;1.85;;;0.70;;
51228;SDS011;37304;52.216;6.874;2023-03-24T23:02:06;0.67;;;0.47;;
51228;SDS011;37304;52.216;6.874;2023-03-24T23:17:08;0.57;;;0.40;;
51228;SDS011;37304;52.216;6.874;2023-03-24T23:22:08;2.57;;;0.80;;
51228;SDS011;37304;52.216;6.874;2023-03-24T23:27:08;2.37;;;0.50;;
51228;SDS011;37304;52.216;6.874;2023-03-24T23:32:09;0.93;;;0.60;;
51228;SDS011;37304;52.216;6.874;2023-03-24T23:37:09;0.47;;;0.40;;
51228;SDS011;37304;52.216;6.874;2023-03-24T23:42:10;1.70;;;1.00;;
51228;SDS011;37304;52.216;6.874;2023-03-24T23:47:11;2.38;;;0.77;;
51228;SDS011;37304;52.216;6.874;2023-03-24T23:52:11;4.00;;;0.80;;
51228;SDS011;37304;52.216;6.874;2023-03-24T23:57:11;1.47;;;0.40;;
